Time;durP1;ratioP1;P1;durP2;ratioP2;P2;SDS_P1;SDS_P2;PMS_P1;PMS_P2;Temp;Humidity;BMP_temperature;BMP_pressure;BME280_temperature;BME280_humidity;BME280_pressure;Samples;Min_cycle;Max_cycle;Signal;HPM_P1;HPM_P2
2023/08/31 00:01:29;;;;;;;6.47;1.10;;;18.10;99.90;;;;;;5093406;28;20200;-78
2023/08/31 00:04:00;;;;;;;5.28;1.20;;;18.20;99.90;;;;;;5093053;28;20274;-80
2023/08/31 00:06:30;;;;;;;4.05;1.10;;;18.20;99.90;;;;;;5091882;28;20200;-80
2023/08/31 00:09:02;;;;;;;5.75;1.17;;;18.20;99.90;;;;;;5072979;28;20217;-80
2023/08/31 00:11:34;;;;;;;4.60;0.80;;;18.10;99.90;;;;;;5073084;28;20224;-80
2023/08/31 00:14:07;;;;;;;6.47;1.23;;;18.10;99.90;;;;;;5073027;28;20577;-82
2023/08/31 00:16:38;;;;;;;6.63;1.20;;;18.20;99.90;;;;;;5073032;28;20191;-83
2023/08/31 00:19:09;;;;;;;5.30;0.95;;;18.10;99.90;;;;;;5073074;28;20254;-83
2023/08/31 00:21:40;;;;;;;5.55;1.10;;;18.10;99.90;;;;;;5072745;28;20185;-83
2023/08/31 00:24:11;;;;;;;5.10;1.27;;;18.20;99.90;;;;;;5073386;28;20554;-79
2023/08/31 00:26:42;;;;;;;5.72;1.00;;;18.20;99.90;;;;;;5090936;28;20188;-78
2023/08/31 00:29:16;;;;;;;5.22;1.00;;;18.30;99.90;;;;;;5088400;28;20269;-79
2023/08/31 00:31:48;;;;;;;5.43;1.00;;;18.20;99.90;;;;;;5085793;28;20189;-77
2023/08/31 00:34:18;;;;;;;5.13;0.90;;;18.20;99.90;;;;;;5074821;28;20526;-79
2023/08/31 00:36:49;;;;;;;2.63;0.85;;;18.30;99.90;;;;;;5074978;28;20189;-83
2023/08/31 00:39:20;;;;;;;13.25;1.42;;;18.30;99.90;;;;;;5074195;28;20181;-78
2023/08/31 00:41:51;;;;;;;6.85;1.23;;;18.20;99.90;;;;;;5082617;28;20652;-77
2023/08/31 00:44:24;;;;;;;6.53;1.00;;;18.40;99.90;;;;;;5085809;28;20196;-82
2023/08/31 00:46:55;;;;;;;13.85;2.25;;;18.60;99.90;;;;;;5085163;28;20200;-83
2023/08/31 00:49:26;;;;;;;3.25;0.75;;;18.80;99.90;;;;;;5091034;28;20216;-81
2023/08/31 00:51:58;;;;;;;3.70;0.93;;;19.00;99.90;;;;;;5087782;28;20297;-76
2023/08/31 00:54:28;;;;;;;4.95;0.80;;;19.00;99.90;;;;;;5076300;28;20192;-77
2023/08/31 00:56:59;;;;;;;6.20;1.00;;;18.90;99.90;;;;;;5074237;28;20197;-79
2023/08/31 00:59:32;;;;;;;7.25;0.90;;;18.70;99.90;;;;;;5084378;28;20196;-77
2023/08/31 01:02:10;;;;;;;8.07;1.48;;;18.60;99.90;;;;;;5088602;28;20224;-80
2023/08/31 01:04:56;;;;;;;12.15;2.22;;;18.70;99.90;;;;;;5088431;28;20192;-78
2023/08/31 01:07:34;;;;;;;8.13;0.95;;;18.90;99.90;;;;;;5082324;28;20201;-79
2023/08/31 01:10:14;;;;;;;4.00;0.80;;;19.00;99.90;;;;;;5082561;28;20200;-82
2023/08/31 01:12:52;;;;;;;3.00;0.75;;;19.10;99.90;;;;;;5080483;28;20315;-80
2023/08/31 01:15:25;;;;;;;7.88;1.10;;;19.20;99.90;;;;;;5078730;28;20207;-81
2023/08/31 01:18:00;;;;;;;4.80;1.05;;;19.20;99.90;;;;;;5076568;28;20196;-81
2023/08/31 01:20:37;;;;;;;8.00;1.20;;;19.10;99.90;;;;;;5083324;28;20227;-80
2023/08/31 01:23:18;;;;;;;5.10;1.00;;;18.90;99.90;;;;;;5096576;28;20235;-77
2023/08/31 01:25:51;;;;;;;5.43;1.00;;;18.60;99.90;;;;;;5082266;28;20185;-77
2023/08/31 01:28:22;;;;;;;11.38;1.73;;;18.40;99.90;;;;;;5076018;28;20248;-77
2023/08/31 01:30:53;;;;;;;6.07;1.10;;;18.20;99.90;;;;;;5084484;28;20275;-76
2023/08/31 01:33:24;;;;;;;5.07;1.00;;;18.20;99.90;;;;;;5075975;28;20193;-79
2023/08/31 01:35:57;;;;;;;6.10;1.05;;;18.30;99.90;;;;;;5075854;28;20193;-80
2023/08/31 01:38:31;;;;;;;6.60;1.20;;;18.30;99.90;;;;;;5076235;28;20189;-80
2023/08/31 01:41:08;;;;;;;5.78;1.20;;;18.50;99.90;;;;;;5075929;28;20193;-77
2023/08/31 01:43:41;;;;;;;5.00;1.20;;;18.70;99.90;;;;;;5075762;28;20192;-78
2023/08/31 01:46:12;;;;;;;3.55;1.40;;;19.00;99.90;;;;;;5075917;28;20668;-79
2023/08/31 01:48:43;;;;;;;10.23;1.23;;;19.20;99.90;;;;;;5078334;28;20305;-76
2023/08/31 01:51:14;;;;;;;8.02;0.98;;;19.50;99.90;;;;;;5095789;28;20644;-79
2023/08/31 01:53:46;;;;;;;4.85;1.27;;;19.60;99.90;;;;;;5095142;28;20632;-79
2023/08/31 01:56:18;;;;;;;3.95;0.90;;;19.80;99.90;;;;;;5095987;28;20199;-78
2023/08/31 01:58:49;;;;;;;7.72;1.20;;;20.00;99.90;;;;;;5093102;28;20581;-76
2023/08/31 02:01:20;;;;;;;4.72;1.13;;;20.10;99.90;;;;;;5087592;28;20640;-78
2023/08/31 02:03:51;;;;;;;5.63;1.10;;;20.10;99.90;;;;;;5076709;28;20203;-79
2023/08/31 02:06:21;;;;;;;7.72;1.10;;;19.90;99.90;;;;;;5075650;28;20654;-79
2023/08/31 02:08:52;;;;;;;6.13;1.10;;;19.80;99.90;;;;;;5075323;28;20217;-76
2023/08/31 02:11:25;;;;;;;3.38;0.90;;;19.70;99.90;;;;;;5075157;28;20199;-76
2023/08/31 02:13:55;;;;;;;7.10;0.90;;;19.70;99.90;;;;;;5079039;28;20652;-77
2023/08/31 02:16:27;;;;;;;4.32;0.90;;;19.60;99.90;;;;;;5074641;28;20661;-76
2023/08/31 02:18:57;;;;;;;8.15;1.38;;;19.70;99.90;;;;;;5087617;28;20202;-78
2023/08/31 02:21:28;;;;;;;4.18;0.80;;;19.70;99.90;;;;;;5079666;28;20205;-79
2023/08/31 02:23:59;;;;;;;8.52;1.42;;;19.60;99.90;;;;;;5094080;28;20224;-78
2023/08/31 02:26:31;;;;;;;6.75;1.10;;;19.60;99.90;;;;;;5094200;28;20199;-76
2023/08/31 02:29:02;;;;;;;5.95;1.55;;;19.50;99.90;;;;;;5075078;28;20256;-77
2023/08/31 02:31:33;;;;;;;4.97;1.20;;;19.50;99.90;;;;;;5088951;28;20184;-79
2023/08/31 02:34:04;;;;;;;5.82;1.75;;;19.40;99.90;;;;;;5094926;28;20188;-78
2023/08/31 02:36:34;;;;;;;6.15;1.15;;;19.50;99.90;;;;;;5095039;28;20188;-78
2023/08/31 02:39:06;;;;;;;5.78;1.35;;;19.60;99.90;;;;;;5086836;28;20272;-79
2023/08/31 02:41:38;;;;;;;6.93;1.60;;;19.80;99.90;;;;;;5075242;28;20621;-79
2023/08/31 02:44:09;;;;;;;6.68;1.90;;;19.90;99.90;;;;;;5074533;28;20193;-79
2023/08/31 02:46:40;;;;;;;6.85;1.42;;;19.90;99.90;;;;;;5073886;28;20185;-79
2023/08/31 02:49:11;;;;;;;8.73;2.10;;;20.00;99.90;;;;;;5075336;28;20228;-77
2023/08/31 02:51:41;;;;;;;6.05;1.30;;;20.00;99.90;;;;;;5074716;28;20192;-79
2023/08/31 02:54:12;;;;;;;9.65;1.10;;;20.00;99.90;;;;;;5074248;28;20193;-76
2023/08/31 02:56:45;;;;;;;5.13;1.05;;;19.80;99.90;;;;;;5074968;28;20291;-79
2023/08/31 02:59:17;;;;;;;5.93;1.23;;;19.60;99.90;;;;;;5075142;28;20192;-75
2023/08/31 03:01:48;;;;;;;7.97;1.40;;;19.30;99.90;;;;;;5074302;28;20658;-77
2023/08/31 03:04:19;;;;;;;7.45;1.30;;;19.30;99.90;;;;;;5073863;28;20185;-78
2023/08/31 03:06:50;;;;;;;8.38;1.38;;;19.30;99.90;;;;;;5074166;28;20246;-80
2023/08/31 03:09:21;;;;;;;6.05;1.00;;;19.30;99.90;;;;;;5084057;28;20220;-77
2023/08/31 03:11:54;;;;;;;10.73;1.50;;;19.20;99.90;;;;;;5073739;28;20688;-76
2023/08/31 03:14:25;;;;;;;8.85;1.30;;;19.20;99.90;;;;;;5074359;28;20227;-76
2023/08/31 03:16:56;;;;;;;6.35;1.30;;;19.30;99.90;;;;;;5073873;28;20196;-79
2023/08/31 03:19:27;;;;;;;6.18;1.08;;;19.30;99.90;;;;;;5072774;28;20215;-79
2023/08/31 03:21:58;;;;;;;6.22;1.30;;;19.30;99.90;;;;;;5087753;28;20223;-81
2023/08/31 03:24:29;;;;;;;5.68;1.42;;;19.40;99.90;;;;;;5092438;28;20563;-77
2023/08/31 03:27:03;;;;;;;5.05;1.00;;;19.40;99.90;;;;;;5084380;28;20219;-78
2023/08/31 03:29:34;;;;;;;4.80;1.20;;;19.40;99.90;;;;;;5075776;28;20216;-76
2023/08/31 03:32:05;;;;;;;7.78;1.08;;;19.40;99.90;;;;;;5083567;28;20199;-78
2023/08/31 03:34:36;;;;;;;7.40;1.23;;;19.50;99.90;;;;;;5093043;28;20231;-78
2023/08/31 03:37:06;;;;;;;6.97;1.35;;;19.50;99.90;;;;;;5083536;28;20188;-78
2023/08/31 03:39:37;;;;;;;9.55;1.58;;;19.50;99.90;;;;;;5083654;28;20189;-75
2023/08/31 03:44:55;;;;;;;5.63;1.35;;;19.30;99.90;;;;;;5091759;28;20279;-78
2023/08/31 03:47:25;;;;;;;9.43;1.30;;;19.30;99.90;;;;;;5083663;28;20196;-77
2023/08/31 03:49:56;;;;;;;6.68;1.35;;;19.30;99.90;;;;;;5086032;28;20206;-77
2023/08/31 03:52:27;;;;;;;4.88;1.40;;;19.30;99.90;;;;;;5084621;28;20193;-79
2023/08/31 03:54:58;;;;;;;3.50;1.20;;;19.30;99.90;;;;;;5073496;28;20195;-77
2023/08/31 03:57:30;;;;;;;6.10;1.30;;;19.30;99.90;;;;;;5083278;28;20199;-78
2023/08/31 04:00:03;;;;;;;5.88;1.05;;;19.30;99.90;;;;;;5093378;28;20196;-75
2023/08/31 04:02:34;;;;;;;5.10;1.60;;;19.10;99.90;;;;;;5093312;28;20188;-76
2023/08/31 04:05:05;;;;;;;5.43;1.20;;;19.00;99.90;;;;;;5086990;28;20193;-79
2023/08/31 04:07:37;;;;;;;4.28;0.93;;;18.90;99.90;;;;;;5083083;28;20702;-79
2023/08/31 04:10:09;;;;;;;5.18;1.02;;;19.00;99.90;;;;;;5087623;28;20714;-77
2023/08/31 04:12:42;;;;;;;6.45;0.85;;;19.00;99.90;;;;;;5072715;28;20232;-78
2023/08/31 04:15:13;;;;;;;11.13;1.52;;;18.90;99.90;;;;;;5083800;28;20271;-79
2023/08/31 04:17:44;;;;;;;4.40;1.05;;;18.90;99.90;;;;;;5091980;28;20203;-79
2023/08/31 04:20:15;;;;;;;6.38;1.13;;;18.90;99.90;;;;;;5081859;28;20193;-80
2023/08/31 04:22:46;;;;;;;7.05;1.23;;;18.80;99.90;;;;;;5077274;28;20636;-81
2023/08/31 04:25:17;;;;;;;7.63;1.25;;;18.80;99.90;;;;;;5081831;28;20215;-80
2023/08/31 04:27:50;;;;;;;6.45;1.40;;;18.70;99.90;;;;;;5093604;28;20238;-81
2023/08/31 04:30:20;;;;;;;5.82;1.00;;;18.80;99.90;;;;;;5079112;28;20208;-82
2023/08/31 04:32:51;;;;;;;7.13;1.20;;;18.80;99.90;;;;;;5089766;28;20192;-80
2023/08/31 04:35:22;;;;;;;6.45;1.10;;;18.90;99.90;;;;;;5084503;28;20675;-80
2023/08/31 04:37:53;;;;;;;4.82;1.00;;;18.90;99.90;;;;;;5073541;28;20227;-81
2023/08/31 04:40:24;;;;;;;6.93;1.13;;;19.00;99.90;;;;;;5075897;28;20188;-80
2023/08/31 04:42:57;;;;;;;8.05;1.40;;;19.10;99.90;;;;;;5076926;28;20189;-81
2023/08/31 04:45:28;;;;;;;8.65;1.23;;;19.10;99.90;;;;;;5089817;28;20196;-80
2023/08/31 04:47:59;;;;;;;9.82;1.30;;;19.10;99.90;;;;;;5097582;28;20222;-81
2023/08/31 04:50:30;;;;;;;7.20;1.10;;;19.20;99.90;;;;;;5095350;28;20280;-79
2023/08/31 04:53:02;;;;;;;7.45;1.40;;;19.20;99.90;;;;;;5090272;28;20197;-81
2023/08/31 04:55:32;;;;;;;6.68;1.10;;;19.20;99.90;;;;;;5097104;28;20200;-78
2023/08/31 04:58:05;;;;;;;7.97;1.05;;;19.10;99.90;;;;;;5096806;28;20201;-77
2023/08/31 05:00:36;;;;;;;4.97;1.30;;;19.10;99.90;;;;;;5080322;28;20193;-77
2023/08/31 05:03:07;;;;;;;7.05;1.20;;;19.10;99.90;;;;;;5080556;28;20207;-80
2023/08/31 05:05:38;;;;;;;7.78;1.20;;;19.00;99.90;;;;;;5089521;28;20245;-79
2023/08/31 05:08:10;;;;;;;7.90;1.08;;;19.00;99.90;;;;;;5078436;28;20197;-80
2023/08/31 05:10:41;;;;;;;8.73;1.00;;;19.00;99.90;;;;;;5075283;28;20220;-77
2023/08/31 05:13:14;;;;;;;4.22;1.10;;;19.10;99.90;;;;;;5085199;28;20232;-80
2023/08/31 05:15:44;;;;;;;6.43;1.30;;;19.00;99.90;;;;;;5080133;28;20558;-81
2023/08/31 05:18:15;;;;;;;5.90;1.10;;;19.00;99.90;;;;;;5075169;28;20525;-80
2023/08/31 05:20:49;;;;;;;8.88;1.40;;;19.00;99.90;;;;;;5082284;28;20188;-81
2023/08/31 05:23:20;;;;;;;7.05;1.25;;;19.00;99.90;;;;;;5086870;28;20219;-81
2023/08/31 05:25:51;;;;;;;4.10;1.20;;;19.00;99.90;;;;;;5094785;28;20279;-81
2023/08/31 05:28:24;;;;;;;6.28;1.00;;;19.00;99.90;;;;;;5083443;28;20188;-81
2023/08/31 05:30:57;;;;;;;5.50;1.35;;;19.00;99.90;;;;;;5094212;28;20570;-81
2023/08/31 05:33:33;;;;;;;9.95;1.60;;;19.00;99.90;;;;;;5089395;28;20216;-81
2023/08/31 05:36:05;;;;;;;7.78;1.60;;;19.00;99.90;;;;;;5091887;28;20196;-81
2023/08/31 05:38:37;;;;;;;5.22;1.38;;;19.00;99.90;;;;;;5090368;28;20256;-80
2023/08/31 05:41:09;;;;;;;7.78;1.20;;;19.10;99.90;;;;;;5075908;28;20192;-85
2023/08/31 05:43:42;;;;;;;5.13;1.25;;;19.10;99.90;;;;;;5075608;28;20652;-83
2023/08/31 05:46:13;;;;;;;3.85;1.10;;;19.10;99.90;;;;;;5076303;28;20709;-82
2023/08/31 05:48:43;;;;;;;6.60;1.02;;;19.00;99.90;;;;;;5075581;28;20189;-84
2023/08/31 05:51:14;;;;;;;9.73;1.30;;;19.10;99.90;;;;;;5094381;28;20223;-79
2023/08/31 05:53:45;;;;;;;7.95;1.10;;;18.90;99.90;;;;;;5077418;28;20195;-80
2023/08/31 05:56:16;;;;;;;8.00;1.50;;;18.90;99.90;;;;;;5076654;28;20209;-78
2023/08/31 05:58:50;;;;;;;5.70;1.00;;;19.00;99.90;;;;;;5078364;28;20203;-80
2023/08/31 06:01:21;;;;;;;3.58;0.82;;;18.90;99.90;;;;;;5074964;28;20220;-81
2023/08/31 06:03:52;;;;;;;3.63;1.08;;;18.90;99.90;;;;;;5074905;28;20553;-79
2023/08/31 06:06:23;;;;;;;6.03;1.10;;;18.90;99.90;;;;;;5091793;28;20279;-77
2023/08/31 06:08:56;;;;;;;2.78;0.93;;;18.90;99.90;;;;;;5095201;28;20191;-77
2023/08/31 06:11:27;;;;;;;6.53;0.98;;;18.90;99.90;;;;;;5095349;28;20188;-78
2023/08/31 06:13:59;;;;;;;6.50;1.00;;;18.90;99.90;;;;;;5095687;28;20192;-77
2023/08/31 06:16:30;;;;;;;4.25;1.00;;;18.80;99.90;;;;;;5095625;28;20215;-77
2023/08/31 06:19:01;;;;;;;3.97;0.80;;;18.80;99.90;;;;;;5095955;28;20689;-76
2023/08/31 06:21:32;;;;;;;5.00;0.90;;;18.80;99.90;;;;;;5095545;28;20195;-76
2023/08/31 06:26:46;;;;;;;8.27;1.02;;;18.70;99.90;;;;;;5095190;28;20630;-77
2023/08/31 06:29:18;;;;;;;7.45;1.20;;;18.70;99.90;;;;;;5095248;28;20648;-77
2023/08/31 06:31:49;;;;;;;4.30;1.15;;;18.70;99.90;;;;;;5085533;28;20196;-77
2023/08/31 06:34:20;;;;;;;5.18;1.02;;;18.70;99.90;;;;;;5077897;28;20201;-77
2023/08/31 06:36:51;;;;;;;5.85;1.15;;;18.50;99.90;;;;;;5086670;28;20217;-76
2023/08/31 06:39:22;;;;;;;4.13;1.42;;;18.50;99.90;;;;;;5079798;28;20192;-77
2023/08/31 06:41:53;;;;;;;5.30;1.00;;;18.40;99.90;;;;;;5094942;28;20267;-77
2023/08/31 06:44:25;;;;;;;8.35;1.05;;;18.40;99.90;;;;;;5082806;28;20188;-77
2023/08/31 06:46:56;;;;;;;4.45;0.75;;;18.30;99.90;;;;;;5095103;28;20242;-78
2023/08/31 06:49:27;;;;;;;8.65;0.95;;;18.20;99.90;;;;;;5085158;28;20220;-78
2023/08/31 06:52:07;;;;;;;4.90;0.93;;;18.10;99.90;;;;;;5074221;28;20244;-79
2023/08/31 06:54:41;;;;;;;7.38;1.05;;;18.10;99.90;;;;;;5080286;28;20195;-77
2023/08/31 06:57:22;;;;;;;5.10;0.95;;;18.00;99.90;;;;;;5094718;28;20228;-76
2023/08/31 06:59:55;;;;;;;5.40;1.08;;;17.90;99.90;;;;;;5093053;28;20540;-77
2023/08/31 07:02:28;;;;;;;4.03;0.98;;;17.90;99.90;;;;;;5094587;28;20184;-77
2023/08/31 07:04:59;;;;;;;5.25;0.95;;;17.80;99.90;;;;;;5094527;28;20655;-76
2023/08/31 07:07:30;;;;;;;3.97;1.02;;;17.70;99.90;;;;;;5094469;28;20192;-77
2023/08/31 07:10:01;;;;;;;7.43;1.20;;;17.70;99.90;;;;;;5089157;28;20734;-76
2023/08/31 07:12:31;;;;;;;5.88;1.10;;;17.60;99.90;;;;;;5091695;28;20228;-77
2023/08/31 07:15:04;;;;;;;5.80;1.02;;;17.60;99.90;;;;;;5092264;28;20593;-77
2023/08/31 07:17:35;;;;;;;6.45;1.10;;;17.50;99.90;;;;;;5074195;28;20197;-76
2023/08/31 07:22:49;;;;;;;5.93;1.10;;;17.40;99.90;;;;;;5076006;28;20715;-77
2023/08/31 07:25:20;;;;;;;5.30;1.10;;;17.30;99.90;;;;;;5075906;28;20201;-76
2023/08/31 07:27:51;;;;;;;4.82;1.00;;;17.30;99.90;;;;;;5084565;28;20189;-77
2023/08/31 07:30:23;;;;;;;5.88;1.00;;;17.20;99.90;;;;;;5073640;28;20307;-77
2023/08/31 07:32:54;;;;;;;9.32;1.30;;;17.20;99.90;;;;;;5081280;28;20648;-76
2023/08/31 07:35:25;;;;;;;6.35;1.00;;;17.20;99.90;;;;;;5094146;28;20528;-77
2023/08/31 07:37:56;;;;;;;5.25;1.10;;;17.10;99.90;;;;;;5087237;28;20192;-76
2023/08/31 07:40:27;;;;;;;3.50;1.20;;;17.00;99.90;;;;;;5086489;28;20198;-78
2023/08/31 07:42:57;;;;;;;6.28;1.02;;;17.00;99.90;;;;;;5088568;28;20237;-78
2023/08/31 07:45:30;;;;;;;12.10;1.25;;;17.00;99.90;;;;;;5091565;28;20660;-77
2023/08/31 07:48:01;;;;;;;9.45;1.30;;;16.90;99.90;;;;;;5093744;28;20225;-77
2023/08/31 07:50:31;;;;;;;8.73;1.40;;;16.90;99.90;;;;;;5077368;28;20224;-76
2023/08/31 07:53:03;;;;;;;5.28;1.20;;;16.80;99.90;;;;;;5081170;28;20193;-76
2023/08/31 07:55:35;;;;;;;7.22;1.40;;;16.80;99.90;;;;;;5080298;28;20208;-76
2023/08/31 07:58:06;;;;;;;5.82;1.27;;;16.80;99.90;;;;;;5079642;28;20192;-76
2023/08/31 08:00:38;;;;;;;6.43;1.63;;;16.70;99.90;;;;;;5093704;28;20192;-77
2023/08/31 08:03:09;;;;;;;6.90;1.55;;;16.70;99.90;;;;;;5092379;28;20685;-77
2023/08/31 08:05:41;;;;;;;8.05;1.40;;;16.60;99.90;;;;;;5092280;28;20184;-77
2023/08/31 08:08:12;;;;;;;7.70;1.25;;;16.60;99.90;;;;;;5073189;28;20660;-76
2023/08/31 08:10:43;;;;;;;7.88;1.40;;;16.60;99.90;;;;;;5073243;28;20570;-77
2023/08/31 08:13:13;;;;;;;5.38;1.30;;;16.60;99.90;;;;;;5072866;28;20236;-78
2023/08/31 08:15:47;;;;;;;10.05;1.48;;;16.50;99.90;;;;;;5087793;28;20233;-77
2023/08/31 08:18:18;;;;;;;7.05;1.40;;;16.50;99.90;;;;;;5088885;28;20204;-78
2023/08/31 08:20:52;;;;;;;5.32;1.60;;;16.40;99.90;;;;;;5083080;28;20197;-77
2023/08/31 08:23:23;;;;;;;5.72;1.42;;;16.40;99.90;;;;;;5075342;28;20215;-77
2023/08/31 08:25:54;;;;;;;4.80;1.30;;;16.40;99.90;;;;;;5092999;28;20253;-77
2023/08/31 08:28:25;;;;;;;6.55;1.45;;;16.40;99.90;;;;;;5093285;28;20192;-77
2023/08/31 08:30:57;;;;;;;7.03;1.58;;;16.30;99.90;;;;;;5093406;28;20231;-77
2023/08/31 08:33:29;;;;;;;7.47;1.80;;;16.30;99.90;;;;;;5088822;28;20196;-78
2023/08/31 08:36:00;;;;;;;7.00;1.77;;;16.20;99.90;;;;;;5073094;28;20193;-78
2023/08/31 08:38:31;;;;;;;4.68;1.40;;;16.20;99.90;;;;;;5087932;28;20188;-78
2023/08/31 08:41:08;;;;;;;9.27;1.90;;;16.20;99.90;;;;;;5073072;28;20189;-78
2023/08/31 08:43:39;;;;;;;6.50;1.52;;;16.10;99.90;;;;;;5072825;28;20189;-78
2023/08/31 08:46:13;;;;;;;6.13;1.77;;;16.10;99.90;;;;;;5076332;28;20189;-77
2023/08/31 08:48:45;;;;;;;5.18;1.80;;;16.00;99.90;;;;;;5076656;28;20193;-77
2023/08/31 08:51:16;;;;;;;4.95;2.10;;;16.00;99.90;;;;;;5072282;28;20680;-77
2023/08/31 08:53:48;;;;;;;6.20;1.60;;;16.00;99.90;;;;;;5081587;28;20200;-77
2023/08/31 08:56:19;;;;;;;3.20;1.35;;;16.00;99.90;;;;;;5081542;28;20200;-77
2023/08/31 08:58:50;;;;;;;6.68;1.40;;;16.00;99.90;;;;;;5082916;28;20189;-77
2023/08/31 09:01:24;;;;;;;7.18;1.50;;;15.90;99.90;;;;;;5086585;28;20192;-78
2023/08/31 09:03:55;;;;;;;6.80;1.40;;;15.90;99.90;;;;;;5081120;28;20200;-78
2023/08/31 09:06:27;;;;;;;4.35;1.25;;;15.90;99.90;;;;;;5076685;28;20352;-78
2023/08/31 09:08:59;;;;;;;7.55;1.40;;;15.90;99.90;;;;;;5077485;28;20197;-78
2023/08/31 09:11:29;;;;;;;4.85;1.65;;;15.90;99.90;;;;;;5077805;28;20223;-78
2023/08/31 09:14:01;;;;;;;6.35;1.50;;;15.80;99.90;;;;;;5089660;28;20572;-78
2023/08/31 09:16:34;;;;;;;6.18;1.75;;;15.80;99.90;;;;;;5081889;28;20559;-78
2023/08/31 09:19:21;;;;;;;5.40;1.33;;;15.80;99.90;;;;;;5075899;28;20200;-77
2023/08/31 09:21:53;;;;;;;5.63;1.77;;;15.80;99.90;;;;;;5072164;28;20201;-77
2023/08/31 09:24:23;;;;;;;7.13;2.00;;;15.80;99.90;;;;;;5072321;28;20197;-78
2023/08/31 09:26:58;;;;;;;8.75;2.60;;;15.80;99.90;;;;;;5083476;28;20196;-77
2023/08/31 09:29:29;;;;;;;10.13;2.90;;;15.70;99.90;;;;;;5083262;28;20192;-77
2023/08/31 09:32:02;;;;;;;11.35;3.05;;;15.70;99.90;;;;;;5085022;28;20300;-77
2023/08/31 09:34:38;;;;;;;8.55;3.17;;;15.70;99.90;;;;;;5086577;28;20556;-78
2023/08/31 09:37:10;;;;;;;12.82;3.85;;;15.70;99.90;;;;;;5086561;28;20205;-78
2023/08/31 09:39:42;;;;;;;12.00;3.38;;;15.70;99.90;;;;;;5087675;28;20208;-78
2023/08/31 09:42:13;;;;;;;8.43;2.92;;;15.70;99.90;;;;;;5076652;28;20572;-78
2023/08/31 09:44:48;;;;;;;10.48;3.05;;;15.70;99.90;;;;;;5089557;28;20196;-78
2023/08/31 09:47:22;;;;;;;7.80;2.90;;;15.80;99.90;;;;;;5083066;28;20200;-78
2023/08/31 09:49:53;;;;;;;8.57;2.85;;;15.80;99.90;;;;;;5082480;28;20203;-78
2023/08/31 09:52:25;;;;;;;7.07;2.88;;;15.80;99.90;;;;;;5091647;28;20317;-78
2023/08/31 09:54:57;;;;;;;8.93;2.75;;;15.80;99.90;;;;;;5089352;28;20196;-78
2023/08/31 09:57:28;;;;;;;8.90;2.58;;;15.90;99.90;;;;;;5079258;28;20581;-78
2023/08/31 09:59:59;;;;;;;6.40;2.90;;;15.90;99.90;;;;;;5075434;28;20201;-78
2023/08/31 10:02:33;;;;;;;5.40;2.35;;;15.90;99.90;;;;;;5076948;28;20197;-78
2023/08/31 10:05:04;;;;;;;10.95;2.60;;;15.90;99.90;;;;;;5075129;28;20216;-78
2023/08/31 10:07:35;;;;;;;5.63;1.92;;;15.90;99.90;;;;;;5078325;28;20200;-79
2023/08/31 10:10:06;;;;;;;5.47;2.10;;;15.90;99.90;;;;;;5090493;28;20192;-78
2023/08/31 10:12:38;;;;;;;5.63;2.00;;;15.90;99.90;;;;;;5081706;28;20246;-78
2023/08/31 10:15:10;;;;;;;7.00;1.80;;;15.90;99.90;;;;;;5095524;28;20285;-79
2023/08/31 10:17:43;;;;;;;7.90;2.17;;;15.90;99.90;;;;;;5079710;28;20645;-79
2023/08/31 10:20:17;;;;;;;4.93;1.70;;;15.90;99.90;;;;;;5075485;28;20205;-79
2023/08/31 10:22:48;;;;;;;5.50;1.95;;;15.90;99.90;;;;;;5075042;28;20577;-80
2023/08/31 10:25:19;;;;;;;8.07;1.80;;;15.90;99.90;;;;;;5074744;28;20207;-80
2023/08/31 10:27:50;;;;;;;8.07;1.95;;;15.90;99.90;;;;;;5074970;28;20593;-79
2023/08/31 10:30:29;;;;;;;5.90;2.35;;;15.80;99.90;;;;;;5081576;28;20197;-79
2023/08/31 10:33:26;;;;;;;6.10;2.00;;;15.80;99.90;;;;;;5074644;28;20205;-79
2023/08/31 10:35:58;;;;;;;6.70;2.10;;;15.80;99.90;;;;;;5079713;28;20205;-77
2023/08/31 10:38:30;;;;;;;7.18;2.00;;;15.70;99.90;;;;;;5074418;28;20193;-77
2023/08/31 10:41:06;;;;;;;7.47;2.17;;;15.70;99.90;;;;;;5074653;28;20543;-78
2023/08/31 10:43:51;;;;;;;6.28;1.80;;;15.60;99.90;;;;;;5074649;28;20207;-78
2023/08/31 10:46:28;;;;;;;6.13;1.98;;;15.70;99.90;;;;;;5076327;28;20261;-77
2023/08/31 10:49:02;;;;;;;6.30;2.10;;;15.60;99.90;;;;;;5080111;28;20191;-78
2023/08/31 10:51:34;;;;;;;3.85;2.08;;;15.60;99.90;;;;;;5081559;28;20216;-78
2023/08/31 10:54:15;;;;;;;8.55;2.53;;;15.50;99.90;;;;;;5086052;28;20197;-77
2023/08/31 10:57:13;;;;;;;6.57;2.58;;;15.50;99.90;;;;;;5083242;28;20250;-79
2023/08/31 10:59:52;;;;;;;9.23;2.58;;;15.40;99.90;;;;;;5074196;28;20193;-78
2023/08/31 11:02:33;;;;;;;9.93;2.90;;;15.40;99.90;;;;;;5074023;28;20713;-79
2023/08/31 11:05:11;;;;;;;11.20;3.08;;;15.40;99.90;;;;;;5074295;28;20197;-79
2023/08/31 11:07:42;;;;;;;7.32;2.83;;;15.40;99.90;;;;;;5074626;28;20246;-78
2023/08/31 11:10:18;;;;;;;6.30;2.75;;;15.30;99.90;;;;;;5076979;28;20193;-78
2023/08/31 11:12:52;;;;;;;7.30;2.95;;;15.30;99.90;;;;;;5075232;28;20236;-79
2023/08/31 11:15:23;;;;;;;8.18;3.42;;;15.20;99.90;;;;;;5087360;28;20196;-76
2023/08/31 11:17:55;;;;;;;10.32;3.17;;;15.20;99.90;;;;;;5073693;28;20283;-77
2023/08/31 11:20:28;;;;;;;11.60;3.25;;;15.20;99.90;;;;;;5077000;28;20205;-76
2023/08/31 11:22:59;;;;;;;10.02;3.28;;;15.10;99.90;;;;;;5073833;28;20225;-77
2023/08/31 11:25:33;;;;;;;9.25;3.40;;;15.10;99.90;;;;;;5072001;28;20181;-77
2023/08/31 11:28:05;;;;;;;6.30;3.22;;;15.00;99.90;;;;;;5074108;28;20656;-79
2023/08/31 11:30:36;;;;;;;7.55;3.22;;;15.00;99.90;;;;;;5073857;28;20300;-78
2023/08/31 11:33:08;;;;;;;12.60;4.55;;;15.00;99.90;;;;;;5073947;28;20196;-77
2023/08/31 11:35:42;;;;;;;6.43;3.13;;;15.00;99.90;;;;;;5074291;28;20196;-77
2023/08/31 11:38:14;;;;;;;8.80;3.78;;;14.90;99.90;;;;;;5073842;28;20223;-79
2023/08/31 11:40:45;;;;;;;8.77;3.55;;;14.90;99.90;;;;;;5083343;28;20210;-78
2023/08/31 11:43:20;;;;;;;10.10;3.85;;;14.80;99.90;;;;;;5081660;28;20713;-79
2023/08/31 11:45:53;;;;;;;10.88;4.00;;;14.80;99.90;;;;;;5072850;28;20185;-79
2023/08/31 11:48:24;;;;;;;10.80;3.88;;;14.70;99.90;;;;;;5072897;28;20655;-78
2023/08/31 11:50:57;;;;;;;13.07;4.15;;;14.70;99.90;;;;;;5073737;28;20245;-77
2023/08/31 11:53:29;;;;;;;9.57;4.10;;;14.70;99.90;;;;;;5073698;28;20189;-79
2023/08/31 11:56:00;;;;;;;10.20;3.95;;;14.60;99.90;;;;;;5073664;28;20193;-79
2023/08/31 11:58:31;;;;;;;10.20;4.00;;;14.60;99.90;;;;;;5073665;28;20191;-79
2023/08/31 12:01:03;;;;;;;14.80;4.03;;;14.60;99.90;;;;;;5073925;28;20196;-80
2023/08/31 12:03:46;;;;;;;9.98;3.97;;;14.60;99.90;;;;;;5074488;28;20185;-79
2023/08/31 12:06:21;;;;;;;10.05;4.07;;;14.60;99.90;;;;;;5073557;28;20192;-79
2023/08/31 12:08:52;;;;;;;11.10;4.05;;;14.60;99.90;;;;;;5073498;28;20188;-79
2023/08/31 12:11:24;;;;;;;13.27;3.92;;;14.50;99.90;;;;;;5090733;28;20212;-79
2023/08/31 12:13:55;;;;;;;10.63;3.70;;;14.60;99.90;;;;;;5093381;28;20189;-79
2023/08/31 12:16:26;;;;;;;8.93;4.20;;;14.60;99.90;;;;;;5093728;28;20185;-78
2023/08/31 12:19:01;;;;;;;7.75;3.47;;;14.60;99.90;;;;;;5092433;28;20208;-79
2023/08/31 12:21:33;;;;;;;7.30;3.28;;;14.50;99.90;;;;;;5093311;28;20224;-80
2023/08/31 12:24:05;;;;;;;9.60;3.10;;;14.50;99.90;;;;;;5093511;28;20193;-80
2023/08/31 12:26:37;;;;;;;11.32;3.58;;;14.50;99.90;;;;;;5081905;28;20644;-79
2023/08/31 12:29:08;;;;;;;6.95;3.30;;;14.50;99.90;;;;;;5072954;28;20192;-79
2023/08/31 12:31:39;;;;;;;8.05;3.13;;;14.50;99.90;;;;;;5073171;28;20213;-80
2023/08/31 12:34:10;;;;;;;8.88;3.00;;;14.50;99.90;;;;;;5073570;28;20763;-79
2023/08/31 12:36:42;;;;;;;9.77;3.75;;;14.50;99.90;;;;;;5073008;28;20185;-80
2023/08/31 12:39:14;;;;;;;9.52;3.70;;;14.40;99.90;;;;;;5073065;28;20246;-80
2023/08/31 12:41:44;;;;;;;8.68;3.42;;;14.40;99.90;;;;;;5073091;28;20299;-80
2023/08/31 12:44:15;;;;;;;10.05;3.50;;;14.40;99.90;;;;;;5072882;28;20196;-79
2023/08/31 12:46:46;;;;;;;7.47;3.30;;;14.30;99.90;;;;;;5073182;28;20196;-80
2023/08/31 12:49:16;;;;;;;9.52;3.47;;;14.30;99.90;;;;;;5073079;28;20545;-79
2023/08/31 12:51:50;;;;;;;10.02;3.53;;;14.30;99.90;;;;;;5073276;28;20230;-79
2023/08/31 12:54:21;;;;;;;8.30;3.65;;;14.20;99.90;;;;;;5091636;28;20189;-79
2023/08/31 12:56:51;;;;;;;7.63;3.63;;;14.20;99.90;;;;;;5083274;28;20216;-79
2023/08/31 12:59:22;;;;;;;11.05;4.18;;;14.10;99.90;;;;;;5092807;28;20200;-79
2023/08/31 13:01:53;;;;;;;6.57;3.70;;;14.10;99.90;;;;;;5095028;28;20196;-79
2023/08/31 13:04:24;;;;;;;10.05;3.65;;;14.10;99.90;;;;;;5097285;28;20233;-78
2023/08/31 13:06:58;;;;;;;10.68;3.78;;;14.10;99.90;;;;;;5097035;28;20222;-79
2023/08/31 13:09:29;;;;;;;10.82;3.85;;;14.20;99.90;;;;;;5095852;28;20204;-80
2023/08/31 13:12:00;;;;;;;12.55;4.00;;;14.20;99.90;;;;;;5096752;28;20235;-79
2023/08/31 13:14:31;;;;;;;11.70;3.92;;;14.20;99.90;;;;;;5094582;28;20203;-79
2023/08/31 13:17:02;;;;;;;15.13;4.38;;;14.20;99.90;;;;;;5096512;28;20188;-79
2023/08/31 13:19:33;;;;;;;12.02;3.92;;;14.20;99.90;;;;;;5096746;28;20230;-79